Weather at Bandaranaike International Colombo Airport

Public forecast

Using degrees Celsius for public forecast. Weather courtesy of forecast.io.

Current aviation weather report (METAR) for Bandaranaike International Colombo Airport

Report is more than 6 hours old.

2022/11/14 15:10 (retrieved 2 years ago)

VCBI 141510Z 14003KT 100V170 7000 -TSRA SCT014 SCT016 FEW020CB 24/23 Q1014 NOSIG RMK CB S/SW/W

Aviation forecast (TAF) for Bandaranaike International Colombo Airport

Forecast is more than 12 hours old.

2023/02/22 18:03 (retrieved 1 year ago)

TAF VCBI 221700Z 2218/2324 07005KT CAVOK TX32/2307Z TN21/2300Z